Time;durP1;ratioP1;P1;durP2;ratioP2;P2;SDS_P1;SDS_P2;PMS_P1;PMS_P2;Temp;Humidity;BMP_temperature;BMP_pressure;BME280_temperature;BME280_humidity;BME280_pressure;Samples;Min_cycle;Max_cycle;Signal;HPM_P1;HPM_P2
2024/01/20 00:02:06;;;;;;;17.55;10.20;;;;;;;;;;12920671;22;20384;-86
2024/01/20 00:07:08;;;;;;;16.80;10.20;;;;;;;;;;12920828;22;20399;-85
2024/01/20 00:12:12;;;;;;;15.07;9.02;;;;;;;;;;12920808;22;20399;-86
2024/01/20 00:17:15;;;;;;;15.20;9.65;;;;;;;;;;12916416;22;20430;-85
2024/01/20 00:22:17;;;;;;;15.00;9.30;;;;;;;;;;12917038;22;20384;-85
2024/01/20 00:27:21;;;;;;;14.63;9.45;;;;;;;;;;12940144;23;20422;-86
2024/01/20 00:32:23;;;;;;;15.63;9.52;;;;;;;;;;12918175;22;20449;-86
2024/01/20 00:37:26;;;;;;;15.05;9.20;;;;;;;;;;12919617;22;20427;-86
2024/01/20 00:42:29;;;;;;;13.15;8.07;;;;;;;;;;12940147;23;20751;-85
2024/01/20 00:47:32;;;;;;;12.05;7.85;;;;;;;;;;12919500;22;20364;-86
2024/01/20 00:52:34;;;;;;;13.77;8.23;;;;;;;;;;12920206;22;20368;-86
2024/01/20 00:57:38;;;;;;;13.73;8.60;;;;;;;;;;12920157;22;20426;-85
2024/01/20 01:02:41;;;;;;;14.10;8.63;;;;;;;;;;12920125;22;20438;-86
2024/01/20 01:07:44;;;;;;;13.27;8.55;;;;;;;;;;12920372;22;20368;-86
2024/01/20 01:12:47;;;;;;;15.70;8.30;;;;;;;;;;12919680;22;20360;-86
2024/01/20 01:17:50;;;;;;;12.27;8.40;;;;;;;;;;12920722;22;20743;-85
2024/01/20 01:22:53;;;;;;;13.57;8.13;;;;;;;;;;12917339;22;20470;-84
2024/01/20 01:27:56;;;;;;;12.82;7.70;;;;;;;;;;12919103;22;20364;-85
2024/01/20 01:32:59;;;;;;;12.57;7.90;;;;;;;;;;12918920;22;20395;-86
2024/01/20 01:38:01;;;;;;;14.90;8.23;;;;;;;;;;12919054;22;20364;-86
2024/01/20 01:43:05;;;;;;;13.50;8.70;;;;;;;;;;12918860;22;20430;-85
2024/01/20 01:48:07;;;;;;;11.70;7.63;;;;;;;;;;12919105;22;20443;-84
2024/01/20 01:53:10;;;;;;;14.65;8.23;;;;;;;;;;12918266;22;20446;-85
2024/01/20 01:58:14;;;;;;;15.73;8.63;;;;;;;;;;12940203;23;20736;-86
2024/01/20 02:03:17;;;;;;;13.82;7.65;;;;;;;;;;12921115;22;20380;-86
2024/01/20 02:08:20;;;;;;;12.00;7.63;;;;;;;;;;12936233;23;20842;-86
2024/01/20 02:13:24;;;;;;;12.13;7.70;;;;;;;;;;12918300;22;20372;-86
2024/01/20 02:18:26;;;;;;;12.48;8.23;;;;;;;;;;12920018;22;20685;-86
2024/01/20 02:23:31;;;;;;;11.45;7.22;;;;;;;;;;12918595;22;20748;-86
2024/01/20 02:28:33;;;;;;;12.27;7.80;;;;;;;;;;12918918;22;20434;-86
2024/01/20 02:33:36;;;;;;;12.73;8.20;;;;;;;;;;12940123;23;20418;-86
2024/01/20 02:38:39;;;;;;;14.68;7.95;;;;;;;;;;12918792;22;20891;-86
2024/01/20 02:43:41;;;;;;;11.60;7.72;;;;;;;;;;12915713;22;20373;-86
2024/01/20 02:48:44;;;;;;;10.50;7.68;;;;;;;;;;12918672;22;20376;-86
2024/01/20 02:53:48;;;;;;;12.35;7.90;;;;;;;;;;12919027;22;20368;-87
2024/01/20 02:58:50;;;;;;;11.40;7.40;;;;;;;;;;12913553;22;20416;-86
2024/01/20 03:03:52;;;;;;;10.73;6.70;;;;;;;;;;12914657;22;20365;-86
2024/01/20 03:08:56;;;;;;;10.70;6.88;;;;;;;;;;12919125;22;20890;-85
2024/01/20 03:13:58;;;;;;;10.93;6.63;;;;;;;;;;12921803;22;20894;-86
2024/01/20 03:19:00;;;;;;;11.63;6.68;;;;;;;;;;12917499;22;20438;-86
2024/01/20 03:24:05;;;;;;;13.60;6.45;;;;;;;;;;12916778;22;20377;-86
2024/01/20 03:29:07;;;;;;;10.63;6.27;;;;;;;;;;12923134;22;20437;-86
2024/01/20 03:34:10;;;;;;;10.23;5.80;;;;;;;;;;12921761;23;20369;-85
2024/01/20 03:39:13;;;;;;;11.45;7.20;;;;;;;;;;12921428;22;20373;-86
2024/01/20 03:44:15;;;;;;;9.90;6.47;;;;;;;;;;12922457;22;20476;-86
2024/01/20 03:49:18;;;;;;;9.95;6.03;;;;;;;;;;12927836;23;20817;-86
2024/01/20 03:54:22;;;;;;;8.57;5.67;;;;;;;;;;12922173;22;20716;-84
2024/01/20 03:59:24;;;;;;;9.40;5.50;;;;;;;;;;12924393;23;20442;-86
2024/01/20 04:04:27;;;;;;;8.53;5.63;;;;;;;;;;12922864;22;20376;-86
2024/01/20 04:09:31;;;;;;;8.60;5.63;;;;;;;;;;12921686;22;20365;-86
2024/01/20 04:14:33;;;;;;;11.50;5.68;;;;;;;;;;12921750;22;20674;-86
2024/01/20 04:19:35;;;;;;;8.40;5.53;;;;;;;;;;12920381;22;20748;-86
2024/01/20 04:24:39;;;;;;;8.48;5.50;;;;;;;;;;12920747;22;20419;-86
2024/01/20 04:29:41;;;;;;;9.27;5.60;;;;;;;;;;12921657;22;20376;-86
2024/01/20 04:34:43;;;;;;;9.60;5.60;;;;;;;;;;12921991;22;20430;-86
2024/01/20 04:39:47;;;;;;;9.03;5.30;;;;;;;;;;12922511;22;20380;-86
2024/01/20 04:44:49;;;;;;;8.00;5.38;;;;;;;;;;12921253;22;20360;-85
2024/01/20 04:49:53;;;;;;;9.07;5.85;;;;;;;;;;12921018;22;20705;-86
2024/01/20 04:54:57;;;;;;;10.47;6.37;;;;;;;;;;12920598;22;20368;-85
2024/01/20 05:00:00;;;;;;;10.10;5.68;;;;;;;;;;12941994;23;20376;-87
2024/01/20 05:05:03;;;;;;;9.63;5.93;;;;;;;;;;12920508;22;20368;-86
2024/01/20 05:10:07;;;;;;;9.20;5.85;;;;;;;;;;12921416;22;20395;-86
2024/01/20 05:15:12;;;;;;;8.87;5.47;;;;;;;;;;12921151;22;20368;-86
2024/01/20 05:20:15;;;;;;;10.00;6.30;;;;;;;;;;12921194;22;20472;-86
2024/01/20 05:25:18;;;;;;;9.82;5.68;;;;;;;;;;12919981;22;20396;-87
2024/01/20 05:30:21;;;;;;;10.75;5.72;;;;;;;;;;12941829;23;20369;-86
2024/01/20 05:35:23;;;;;;;8.57;5.88;;;;;;;;;;12919711;22;20724;-86
2024/01/20 05:40:27;;;;;;;9.27;5.45;;;;;;;;;;12921005;22;20886;-86
2024/01/20 05:45:29;;;;;;;8.23;5.10;;;;;;;;;;12920849;22;20411;-86
2024/01/20 05:50:31;;;;;;;9.55;5.88;;;;;;;;;;12918330;22;20372;-86
2024/01/20 05:55:35;;;;;;;9.27;5.70;;;;;;;;;;12918822;22;20371;-86
2024/01/20 06:00:37;;;;;;;8.85;5.43;;;;;;;;;;12919762;22;20437;-86
2024/01/20 06:05:40;;;;;;;8.52;5.57;;;;;;;;;;12918935;22;20403;-86
2024/01/20 06:10:44;;;;;;;9.38;5.35;;;;;;;;;;12920073;23;20403;-86
2024/01/20 06:15:46;;;;;;;8.43;5.55;;;;;;;;;;12914352;22;20369;-85
2024/01/20 06:20:48;;;;;;;8.50;5.57;;;;;;;;;;12917425;22;20384;-86
2024/01/20 06:25:52;;;;;;;8.63;5.18;;;;;;;;;;12916441;22;20364;-85
2024/01/20 06:30:56;;;;;;;9.40;5.73;;;;;;;;;;12917876;22;20891;-86
2024/01/20 06:35:58;;;;;;;7.22;5.38;;;;;;;;;;12938084;23;20395;-85
2024/01/20 06:41:01;;;;;;;10.18;6.32;;;;;;;;;;12938539;23;20384;-86
2024/01/20 06:46:04;;;;;;;10.57;6.17;;;;;;;;;;12918471;23;20372;-85
2024/01/20 06:51:09;;;;;;;13.35;7.85;;;;;;;;;;12940046;23;20368;-88
2024/01/20 06:56:13;;;;;;;8.10;5.17;;;;;;;;;;12942981;23;20360;-87
2024/01/20 07:01:16;;;;;;;12.80;5.45;;;;;;;;;;12921814;22;21144;-87
2024/01/20 07:06:22;;;;;;;18.17;6.35;;;;;;;;;;12922199;22;20365;-87
2024/01/20 07:11:26;;;;;;;11.67;4.83;;;;;;;;;;12925068;22;20372;-87
2024/01/20 07:16:29;;;;;;;9.10;5.30;;;;;;;;;;12926013;22;20357;-87
2024/01/20 07:21:32;;;;;;;7.50;4.30;;;;;;;;;;12923675;22;20540;-87
2024/01/20 07:26:35;;;;;;;7.03;3.90;;;;;;;;;;12945255;23;20376;-88
2024/01/20 07:31:38;;;;;;;7.85;4.47;;;;;;;;;;12945033;23;20369;-87
2024/01/20 07:36:40;;;;;;;8.73;4.20;;;;;;;;;;12923838;22;20392;-87
2024/01/20 07:41:44;;;;;;;7.80;4.03;;;;;;;;;;12923268;22;20384;-87
2024/01/20 07:46:46;;;;;;;6.03;3.53;;;;;;;;;;12923655;22;20365;-88
2024/01/20 07:51:49;;;;;;;7.47;4.07;;;;;;;;;;12922739;22;20917;-87
2024/01/20 07:56:52;;;;;;;7.43;4.75;;;;;;;;;;12923408;22;20364;-87
2024/01/20 08:01:55;;;;;;;9.82;5.13;;;;;;;;;;12923135;22;20380;-87
2024/01/20 08:06:57;;;;;;;6.77;4.67;;;;;;;;;;12922935;22;20410;-86
2024/01/20 08:12:01;;;;;;;7.10;4.18;;;;;;;;;;12943418;23;20422;-88
2024/01/20 08:17:04;;;;;;;10.10;5.32;;;;;;;;;;12922480;22;20430;-87
2024/01/20 08:22:07;;;;;;;8.43;4.43;;;;;;;;;;12927692;22;20382;-81
2024/01/20 08:27:11;;;;;;;8.10;4.40;;;;;;;;;;12976722;22;20458;-81
2024/01/20 08:32:13;;;;;;;6.57;4.30;;;;;;;;;;12979433;22;20749;-79
2024/01/20 08:37:15;;;;;;;5.80;3.50;;;;;;;;;;12977292;22;20675;-81
2024/01/20 08:42:19;;;;;;;6.22;3.90;;;;;;;;;;12977688;22;20707;-85
2024/01/20 08:47:21;;;;;;;10.60;4.63;;;;;;;;;;12969809;22;20362;-86
2024/01/20 08:52:24;;;;;;;11.20;5.70;;;;;;;;;;12976293;22;20815;-85
2024/01/20 08:57:29;;;;;;;9.63;4.90;;;;;;;;;;12975348;22;20358;-85
2024/01/20 09:02:32;;;;;;;6.70;4.37;;;;;;;;;;12979159;22;20530;-85
2024/01/20 09:07:34;;;;;;;9.95;5.05;;;;;;;;;;12976742;22;20370;-85
2024/01/20 09:12:38;;;;;;;6.80;4.50;;;;;;;;;;12977579;22;20517;-85
2024/01/20 09:17:40;;;;;;;9.68;5.65;;;;;;;;;;12998253;22;20826;-85
2024/01/20 09:22:43;;;;;;;7.60;4.85;;;;;;;;;;12978088;22;20448;-85
2024/01/20 09:27:46;;;;;;;7.88;4.47;;;;;;;;;;12976725;22;20374;-84
2024/01/20 09:32:49;;;;;;;5.10;3.22;;;;;;;;;;13001088;22;20371;-84
2024/01/20 09:37:51;;;;;;;5.43;3.00;;;;;;;;;;12977962;22;20367;-85
2024/01/20 09:42:55;;;;;;;4.20;2.50;;;;;;;;;;12978109;22;20925;-85
2024/01/20 09:47:57;;;;;;;4.10;2.20;;;;;;;;;;12977842;22;20676;-85
2024/01/20 09:53:08;;;;;;;4.10;2.42;;;;;;;;;;13003371;22;20371;-85
2024/01/20 09:58:13;;;;;;;3.80;2.05;;;;;;;;;;12981392;22;20367;-85
2024/01/20 10:03:20;;;;;;;3.65;2.08;;;;;;;;;;13001253;22;20378;-85
2024/01/20 10:08:22;;;;;;;2.50;1.73;;;;;;;;;;12999327;22;20431;-84
2024/01/20 10:13:26;;;;;;;1.67;1.40;;;;;;;;;;12978020;22;20826;-85
2024/01/20 10:18:29;;;;;;;2.30;1.42;;;;;;;;;;12979090;22;20417;-86
2024/01/20 10:23:34;;;;;;;2.60;1.90;;;;;;;;;;12982425;22;20382;-85
2024/01/20 10:28:38;;;;;;;2.97;1.80;;;;;;;;;;12983353;22;20872;-85
2024/01/20 10:33:40;;;;;;;3.50;2.05;;;;;;;;;;12982686;22;20895;-85
2024/01/20 10:38:49;;;;;;;2.38;2.00;;;;;;;;;;12981829;22;20592;-80
2024/01/20 10:43:59;;;;;;;3.63;2.25;;;;;;;;;;12980829;22;20382;-82
2024/01/20 10:49:08;;;;;;;4.15;2.72;;;;;;;;;;12980050;22;20469;-81
2024/01/20 10:54:12;;;;;;;4.45;2.58;;;;;;;;;;12979871;22;20898;-80
2024/01/20 10:59:18;;;;;;;6.60;2.87;;;;;;;;;;12981827;22;20405;-80
2024/01/20 11:04:22;;;;;;;9.63;5.72;;;;;;;;;;12981085;22;20433;-80
2024/01/20 11:09:25;;;;;;;15.00;9.00;;;;;;;;;;12979311;22;20530;-82
2024/01/20 11:14:32;;;;;;;6.63;4.15;;;;;;;;;;12980150;22;20484;-82
2024/01/20 11:19:34;;;;;;;5.65;3.47;;;;;;;;;;12981115;22;20421;-82
2024/01/20 11:24:38;;;;;;;5.82;3.63;;;;;;;;;;12979386;22;20421;-80
2024/01/20 11:29:42;;;;;;;4.32;3.28;;;;;;;;;;12979122;22;20415;-80
2024/01/20 11:34:44;;;;;;;8.85;5.03;;;;;;;;;;12977365;22;20414;-81
2024/01/20 11:39:46;;;;;;;8.80;4.13;;;;;;;;;;12969222;22;20387;-81
2024/01/20 11:44:52;;;;;;;9.73;5.40;;;;;;;;;;12971151;22;20388;-81
2024/01/20 11:49:54;;;;;;;6.20;3.30;;;;;;;;;;12966614;22;20433;-81
2024/01/20 11:54:57;;;;;;;6.97;4.47;;;;;;;;;;12966614;22;20383;-81
2024/01/20 12:00:00;;;;;;;5.87;3.30;;;;;;;;;;12970341;22;20384;-81
2024/01/20 12:05:03;;;;;;;5.53;3.00;;;;;;;;;;12966687;22;20430;-81
2024/01/20 12:10:06;;;;;;;5.40;3.30;;;;;;;;;;12965752;22;20420;-81
2024/01/20 12:15:10;;;;;;;4.53;2.70;;;;;;;;;;12965685;22;20382;-83
2024/01/20 12:20:13;;;;;;;3.65;2.10;;;;;;;;;;12964756;22;20437;-82
2024/01/20 12:25:16;;;;;;;5.90;2.30;;;;;;;;;;12965133;22;20421;-83
2024/01/20 12:30:20;;;;;;;3.30;1.20;;;;;;;;;;12966896;22;20451;-82
2024/01/20 12:35:22;;;;;;;2.13;1.50;;;;;;;;;;12965722;22;20427;-83
2024/01/20 12:40:26;;;;;;;2.15;1.52;;;;;;;;;;12961240;22;20461;-81
2024/01/20 12:45:29;;;;;;;3.33;2.42;;;;;;;;;;12959166;22;20456;-80
2024/01/20 12:50:32;;;;;;;7.00;3.55;;;;;;;;;;12958948;22;20809;-81
2024/01/20 12:55:35;;;;;;;5.00;2.75;;;;;;;;;;12962074;22;20378;-80
2024/01/20 13:00:38;;;;;;;3.92;2.72;;;;;;;;;;12963912;22;20379;-79
2024/01/20 13:05:42;;;;;;;3.33;2.33;;;;;;;;;;12978650;22;20888;-80
2024/01/20 13:10:49;;;;;;;2.95;2.00;;;;;;;;;;12963030;22;20863;-80
2024/01/20 13:15:53;;;;;;;3.65;1.98;;;;;;;;;;12962466;22;20378;-77
2024/01/20 13:20:55;;;;;;;2.90;2.27;;;;;;;;;;12964244;22;20382;-78
2024/01/20 13:26:00;;;;;;;3.88;2.00;;;;;;;;;;12959101;22;21037;-77
2024/01/20 13:31:04;;;;;;;4.87;2.97;;;;;;;;;;12960624;22;20367;-79
2024/01/20 13:36:07;;;;;;;9.80;4.83;;;;;;;;;;12960880;22;20426;-79
2024/01/20 13:41:10;;;;;;;8.43;4.28;;;;;;;;;;12959903;22;20370;-79
2024/01/20 13:46:14;;;;;;;10.53;5.73;;;;;;;;;;12961573;22;20453;-80
2024/01/20 13:51:17;;;;;;;3.50;2.40;;;;;;;;;;12962597;22;20386;-79
2024/01/20 13:56:20;;;;;;;5.70;2.77;;;;;;;;;;12960145;22;20754;-79
2024/01/20 14:01:24;;;;;;;3.53;2.57;;;;;;;;;;12959591;22;20378;-80
2024/01/20 14:06:26;;;;;;;4.30;2.70;;;;;;;;;;12963795;22;20878;-79
2024/01/20 14:11:30;;;;;;;16.17;6.05;;;;;;;;;;12956839;22;20444;-80
2024/01/20 14:16:34;;;;;;;4.30;2.72;;;;;;;;;;12962890;22;20928;-80
2024/01/20 14:21:36;;;;;;;3.53;2.50;;;;;;;;;;12960387;22;21174;-80
2024/01/20 14:26:39;;;;;;;3.45;2.65;;;;;;;;;;12961340;22;20387;-79
2024/01/20 14:31:47;;;;;;;4.53;2.78;;;;;;;;;;12962360;22;20383;-80
2024/01/20 14:36:51;;;;;;;3.83;2.80;;;;;;;;;;12963983;22;20374;-79
2024/01/20 14:41:53;;;;;;;5.03;3.30;;;;;;;;;;12961338;22;20436;-81
2024/01/20 14:46:57;;;;;;;7.10;3.00;;;;;;;;;;12961378;22;20382;-80
2024/01/20 14:51:59;;;;;;;4.60;2.80;;;;;;;;;;12962942;22;20436;-79
2024/01/20 14:57:01;;;;;;;6.10;2.87;;;;;;;;;;12963275;22;20467;-79
2024/01/20 15:02:05;;;;;;;5.07;2.78;;;;;;;;;;12962812;22;20440;-79
2024/01/20 15:07:07;;;;;;;4.23;2.70;;;;;;;;;;12963874;22;20917;-79
2024/01/20 15:12:10;;;;;;;4.57;3.27;;;;;;;;;;12966537;22;20698;-77
2024/01/20 15:17:13;;;;;;;5.37;2.50;;;;;;;;;;12966635;22;20413;-79
2024/01/20 15:22:17;;;;;;;5.18;3.10;;;;;;;;;;12966669;22;21898;-78
2024/01/20 15:27:19;;;;;;;5.45;2.58;;;;;;;;;;12965514;22;20892;-79
2024/01/20 15:32:25;;;;;;;5.15;2.80;;;;;;;;;;12960611;22;20383;-79
2024/01/20 15:37:27;;;;;;;2.97;2.30;;;;;;;;;;12962761;22;20386;-80
2024/01/20 15:42:30;;;;;;;4.30;2.35;;;;;;;;;;12961600;22;20382;-81
2024/01/20 15:47:34;;;;;;;4.50;2.83;;;;;;;;;;12967001;22;20374;-78
2024/01/20 15:52:36;;;;;;;4.97;3.15;;;;;;;;;;12965572;22;20714;-80
2024/01/20 15:57:38;;;;;;;6.63;3.20;;;;;;;;;;12962532;22;20932;-81
2024/01/20 16:02:42;;;;;;;7.00;3.93;;;;;;;;;;12963622;22;20764;-80
2024/01/20 16:07:45;;;;;;;21.20;9.05;;;;;;;;;;12962124;22;20413;-81
2024/01/20 16:12:47;;;;;;;26.53;12.03;;;;;;;;;;12966262;22;20437;-81
2024/01/20 16:17:51;;;;;;;14.47;7.47;;;;;;;;;;12962717;22;20448;-82
2024/01/20 16:22:53;;;;;;;9.15;5.50;;;;;;;;;;12964960;22;20590;-81
2024/01/20 16:27:55;;;;;;;8.47;4.70;;;;;;;;;;12965186;22;20370;-80
2024/01/20 16:32:59;;;;;;;16.93;7.43;;;;;;;;;;12973397;22;20975;-80
2024/01/20 16:38:01;;;;;;;13.60;6.75;;;;;;;;;;12973989;22;20371;-81
2024/01/20 16:43:04;;;;;;;14.17;7.40;;;;;;;;;;12971065;22;20475;-81
2024/01/20 16:48:08;;;;;;;16.08;9.77;;;;;;;;;;12960225;22;20479;-81
2024/01/20 16:53:11;;;;;;;13.45;8.25;;;;;;;;;;12970874;22;20914;-81
2024/01/20 16:58:14;;;;;;;16.10;9.40;;;;;;;;;;12969671;22;20367;-80
2024/01/20 17:03:21;;;;;;;15.60;9.35;;;;;;;;;;12972214;22;20421;-81
2024/01/20 17:08:25;;;;;;;17.42;10.32;;;;;;;;;;12972312;22;20463;-80
2024/01/20 17:13:27;;;;;;;24.67;12.52;;;;;;;;;;12974569;22;20371;-80
2024/01/20 17:18:30;;;;;;;23.33;12.97;;;;;;;;;;12976223;22;20372;-81
2024/01/20 17:23:33;;;;;;;19.65;11.40;;;;;;;;;;12975018;22;20440;-81
2024/01/20 17:28:35;;;;;;;21.30;11.53;;;;;;;;;;12975320;22;20533;-80
2024/01/20 17:33:39;;;;;;;25.83;14.27;;;;;;;;;;12974382;22;20734;-80
2024/01/20 17:38:41;;;;;;;32.87;14.90;;;;;;;;;;12974374;22;20355;-81
2024/01/20 17:43:45;;;;;;;27.52;14.40;;;;;;;;;;12976093;22;20437;-81
2024/01/20 17:48:49;;;;;;;29.83;15.30;;;;;;;;;;12975012;22;20367;-81
2024/01/20 17:53:51;;;;;;;31.83;15.25;;;;;;;;;;12977235;22;20418;-80
2024/01/20 17:58:56;;;;;;;25.23;13.33;;;;;;;;;;12976680;22;20370;-81
2024/01/20 18:04:04;;;;;;;22.40;11.97;;;;;;;;;;12974954;22;20927;-81
2024/01/20 18:09:11;;;;;;;19.98;11.93;;;;;;;;;;12975604;22;20367;-81
2024/01/20 18:14:21;;;;;;;20.70;12.13;;;;;;;;;;12974838;22;20418;-81
2024/01/20 18:19:27;;;;;;;34.72;16.17;;;;;;;;;;12977034;22;20358;-81
2024/01/20 18:24:30;;;;;;;35.85;17.70;;;;;;;;;;12979073;22;20386;-82
2024/01/20 18:29:32;;;;;;;32.57;17.57;;;;;;;;;;12973038;22;20487;-82
2024/01/20 18:34:44;;;;;;;26.63;14.40;;;;;;;;;;12973508;22;20382;-79
2024/01/20 18:39:48;;;;;;;29.50;15.53;;;;;;;;;;12977648;22;20956;-81
2024/01/20 18:44:54;;;;;;;34.45;17.95;;;;;;;;;;12980236;22;20383;-82
2024/01/20 18:49:57;;;;;;;35.47;19.53;;;;;;;;;;12980791;22;20428;-81
2024/01/20 18:55:00;;;;;;;33.70;20.10;;;;;;;;;;12980619;22;20699;-81
2024/01/20 19:00:03;;;;;;;32.92;19.02;;;;;;;;;;12980436;22;20358;-80
2024/01/20 19:05:07;;;;;;;35.92;19.98;;;;;;;;;;12981222;22;20408;-81
2024/01/20 19:10:09;;;;;;;39.92;21.85;;;;;;;;;;12981041;22;20397;-81
2024/01/20 19:15:14;;;;;;;38.50;21.20;;;;;;;;;;12981023;22;20431;-82
2024/01/20 19:20:22;;;;;;;38.30;21.83;;;;;;;;;;12984578;22;20367;-79
2024/01/20 19:25:27;;;;;;;43.60;23.77;;;;;;;;;;12981250;22;20487;-79
2024/01/20 19:30:29;;;;;;;44.20;24.10;;;;;;;;;;12981773;22;20366;-79
2024/01/20 19:35:35;;;;;;;39.17;23.70;;;;;;;;;;12980286;22;20366;-79
2024/01/20 19:40:37;;;;;;;46.08;24.63;;;;;;;;;;12980710;22;21104;-81
2024/01/20 19:45:40;;;;;;;40.03;24.20;;;;;;;;;;12980031;22;20436;-81
2024/01/20 19:50:45;;;;;;;50.00;26.80;;;;;;;;;;12980891;22;20370;-81
2024/01/20 19:55:48;;;;;;;65.43;34.25;;;;;;;;;;12981638;22;20928;-81
2024/01/20 20:00:50;;;;;;;63.05;32.95;;;;;;;;;;12978580;22;20904;-81
2024/01/20 20:05:54;;;;;;;74.88;39.47;;;;;;;;;;12980276;22;20444;-80
2024/01/20 20:10:56;;;;;;;61.72;34.55;;;;;;;;;;12980926;22;20405;-81
2024/01/20 20:15:58;;;;;;;59.25;30.77;;;;;;;;;;12985686;22;20412;-81
2024/01/20 20:21:02;;;;;;;51.00;29.67;;;;;;;;;;12980079;22;20703;-81
2024/01/20 20:26:05;;;;;;;48.33;28.42;;;;;;;;;;12980498;22;20382;-81
2024/01/20 20:31:09;;;;;;;52.35;29.48;;;;;;;;;;12979292;22;20370;-82
2024/01/20 20:36:13;;;;;;;56.17;30.33;;;;;;;;;;12979573;22;20679;-81
2024/01/20 20:41:15;;;;;;;53.35;30.48;;;;;;;;;;12980456;22;20432;-78
2024/01/20 20:46:19;;;;;;;48.93;28.57;;;;;;;;;;12979631;22;20750;-81
2024/01/20 20:51:24;;;;;;;52.15;28.25;;;;;;;;;;12980494;22;20432;-81
2024/01/20 20:56:27;;;;;;;45.35;26.65;;;;;;;;;;12979328;22;20397;-81
2024/01/20 21:01:29;;;;;;;42.42;25.88;;;;;;;;;;12978745;22;20363;-81
2024/01/20 21:06:33;;;;;;;45.20;26.10;;;;;;;;;;12979797;22;20383;-80
2024/01/20 21:11:35;;;;;;;45.03;26.98;;;;;;;;;;12988603;22;20425;-80
2024/01/20 21:16:37;;;;;;;43.63;25.60;;;;;;;;;;12979982;22;20448;-80
2024/01/20 21:21:41;;;;;;;46.47;25.98;;;;;;;;;;12978576;22;20742;-79
2024/01/20 21:26:43;;;;;;;42.95;25.48;;;;;;;;;;12978163;22;20444;-80
2024/01/20 21:31:45;;;;;;;51.50;27.53;;;;;;;;;;12980008;22;20830;-80
2024/01/20 21:36:51;;;;;;;44.58;26.45;;;;;;;;;;12978502;22;20432;-80
2024/01/20 21:41:53;;;;;;;45.57;27.60;;;;;;;;;;12978192;22;20432;-80
2024/01/20 21:46:56;;;;;;;49.33;28.52;;;;;;;;;;12978369;22;20439;-79
2024/01/20 21:52:00;;;;;;;49.90;28.00;;;;;;;;;;12978786;22;20366;-80
2024/01/20 21:57:03;;;;;;;50.13;28.42;;;;;;;;;;12976077;22;20420;-79
2024/01/20 22:02:06;;;;;;;51.00;28.60;;;;;;;;;;12974771;22;21328;-80
2024/01/20 22:07:10;;;;;;;46.40;27.27;;;;;;;;;;12977838;22;20379;-80
2024/01/20 22:12:12;;;;;;;39.30;21.70;;;;;;;;;;12976354;22;20370;-79
2024/01/20 22:17:14;;;;;;;31.52;19.23;;;;;;;;;;12975670;22;20362;-79
2024/01/20 22:22:19;;;;;;;35.90;19.92;;;;;;;;;;12975000;22;20370;-80
2024/01/20 22:27:21;;;;;;;33.78;19.83;;;;;;;;;;12976575;22;20846;-79
2024/01/20 22:32:24;;;;;;;32.80;19.03;;;;;;;;;;12976980;22;20432;-80
2024/01/20 22:37:27;;;;;;;31.35;18.77;;;;;;;;;;12976323;22;20358;-82
2024/01/20 22:42:30;;;;;;;33.92;19.77;;;;;;;;;;12976403;22;20818;-81
2024/01/20 22:47:33;;;;;;;33.55;19.77;;;;;;;;;;12977940;22;20713;-81
2024/01/20 22:52:36;;;;;;;34.50;19.23;;;;;;;;;;12976707;22;20363;-81
2024/01/20 22:57:39;;;;;;;33.17;18.77;;;;;;;;;;12975928;22;20668;-80
2024/01/20 23:02:41;;;;;;;31.45;18.33;;;;;;;;;;12983149;22;20425;-81
2024/01/20 23:07:45;;;;;;;27.10;17.33;;;;;;;;;;12976809;22;20432;-81
2024/01/20 23:12:48;;;;;;;27.67;16.45;;;;;;;;;;12974029;22;20372;-81
2024/01/20 23:17:50;;;;;;;28.98;15.82;;;;;;;;;;12976336;22;20546;-80
2024/01/20 23:22:54;;;;;;;31.70;17.30;;;;;;;;;;12997180;22;21125;-81
2024/01/20 23:27:56;;;;;;;28.30;17.13;;;;;;;;;;13000227;22;20753;-80
2024/01/20 23:32:59;;;;;;;27.77;15.13;;;;;;;;;;12981957;22;20694;-81
2024/01/20 23:38:02;;;;;;;23.75;14.45;;;;;;;;;;12979607;22;20370;-81
2024/01/20 23:43:05;;;;;;;25.65;14.45;;;;;;;;;;12979406;22;20835;-80
2024/01/20 23:48:08;;;;;;;26.10;14.30;;;;;;;;;;12979703;22;20789;-81
2024/01/20 23:53:12;;;;;;;23.42;14.02;;;;;;;;;;12979530;22;20371;-80
2024/01/20 23:58:14;;;;;;;23.95;13.43;;;;;;;;;;12984083;22;20822;-80
